Time;durP1;ratioP1;P1;durP2;ratioP2;P2;SDS_P1;SDS_P2;PMS_P1;PMS_P2;Temp;Humidity;BMP_temperature;BMP_pressure;BME280_temperature;BME280_humidity;BME280_pressure;Samples;Min_cycle;Max_cycle;Signal;HPM_P1;HPM_P2
2023/11/20 00:02:15;;;;;;;7.10;4.10;;;;;;;5.88;100.00;100863.88;5088624;28;20080;-65
2023/11/20 00:04:40;;;;;;;7.82;4.18;;;;;;;5.89;100.00;100856.97;5086745;28;20035;-66
2023/11/20 00:07:05;;;;;;;11.27;4.38;;;;;;;5.87;100.00;100859.63;5087501;28;20459;-65
2023/11/20 00:09:32;;;;;;;9.45;4.28;;;;;;;5.87;100.00;100853.63;5088437;28;20085;-66
2023/11/20 00:11:57;;;;;;;8.68;4.10;;;;;;;5.82;100.00;100850.53;5091837;28;20035;-65
2023/11/20 00:14:23;;;;;;;7.22;4.18;;;;;;;5.79;100.00;100850.75;5089309;28;20090;-66
2023/11/20 00:16:48;;;;;;;9.77;4.78;;;;;;;5.80;100.00;100847.22;5091263;28;20035;-65
2023/11/20 00:19:14;;;;;;;8.18;4.60;;;;;;;5.79;100.00;100845.56;5091804;28;20020;-65
2023/11/20 00:21:40;;;;;;;9.73;4.68;;;;;;;5.80;100.00;100852.41;5090469;28;20919;-65
2023/11/20 00:24:07;;;;;;;8.73;4.47;;;;;;;5.82;100.00;100845.34;5091095;28;20381;-65
2023/11/20 00:26:33;;;;;;;11.90;5.35;;;;;;;5.82;100.00;100848.78;5086636;28;20463;-65
2023/11/20 00:28:59;;;;;;;10.15;5.43;;;;;;;5.72;100.00;100833.97;5091910;28;20082;-65
2023/11/20 00:31:25;;;;;;;10.13;4.78;;;;;;;5.75;100.00;100846.72;5089776;28;20028;-66
2023/11/20 00:33:50;;;;;;;9.55;4.65;;;;;;;5.82;100.00;100848.78;5090940;28;20577;-65
2023/11/20 00:36:16;;;;;;;8.68;4.40;;;;;;;5.83;100.00;100847.84;5092176;28;20093;-66
2023/11/20 00:38:41;;;;;;;7.50;4.57;;;;;;;5.83;100.00;100839.25;5089763;28;20024;-65
2023/11/20 00:41:09;;;;;;;11.48;4.43;;;;;;;5.81;100.00;100833.38;5091103;28;20533;-65
2023/11/20 00:43:35;;;;;;;8.63;4.43;;;;;;;5.81;100.00;100841.94;5090653;28;20032;-65
2023/11/20 00:46:01;;;;;;;9.43;4.35;;;;;;;5.80;100.00;100837.72;5091320;28;20039;-65
2023/11/20 00:48:27;;;;;;;8.52;4.57;;;;;;;5.79;100.00;100840.41;5089573;28;20455;-66
2023/11/20 00:50:54;;;;;;;8.68;3.78;;;;;;;5.77;100.00;100843.09;5090385;28;20040;-65
2023/11/20 00:53:20;;;;;;;9.15;4.13;;;;;;;5.76;100.00;100843.19;5095191;28;20036;-65
2023/11/20 00:55:45;;;;;;;9.98;4.35;;;;;;;5.72;100.00;100847.75;5092783;28;20051;-66
2023/11/20 00:58:11;;;;;;;8.68;4.40;;;;;;;5.74;100.00;100839.88;5094202;28;20093;-66
2023/11/20 01:00:37;;;;;;;9.68;3.70;;;;;;;5.71;100.00;100842.66;5092343;28;20065;-65
2023/11/20 01:03:03;;;;;;;8.82;4.70;;;;;;;5.70;100.00;100835.84;5099824;28;20032;-65
2023/11/20 01:05:29;;;;;;;11.45;4.60;;;;;;;5.70;100.00;100835.84;5092069;28;20386;-65
2023/11/20 01:07:54;;;;;;;8.38;4.40;;;;;;;5.66;100.00;100836.09;5096074;28;20039;-66
2023/11/20 01:10:20;;;;;;;10.32;5.10;;;;;;;5.65;100.00;100834.44;5096426;28;20051;-65
2023/11/20 01:12:45;;;;;;;7.93;3.70;;;;;;;5.61;100.00;100830.41;5094651;28;20032;-65
2023/11/20 01:15:11;;;;;;;10.15;3.88;;;;;;;5.60;100.00;100831.31;5093923;28;20053;-65
2023/11/20 01:17:36;;;;;;;11.45;3.97;;;;;;;5.61;100.00;100825.22;5090571;28;20051;-65
2023/11/20 01:20:03;;;;;;;8.82;4.57;;;;;;;5.63;100.00;100825.13;5087894;28;20040;-66
2023/11/20 01:22:28;;;;;;;10.05;4.25;;;;;;;5.63;100.00;100823.38;5091987;28;20110;-65
2023/11/20 01:24:54;;;;;;;8.40;4.22;;;;;;;5.64;100.00;100824.19;5088921;28;20082;-65
2023/11/20 01:27:19;;;;;;;10.13;5.28;;;;;;;5.65;100.00;100833.59;5095841;28;20043;-65
2023/11/20 01:29:45;;;;;;;7.72;4.28;;;;;;;5.64;100.00;100826.78;5092451;28;20024;-65
2023/11/20 01:32:10;;;;;;;7.63;4.32;;;;;;;5.62;100.00;100826.06;5089914;28;20173;-66
2023/11/20 01:34:35;;;;;;;9.25;3.58;;;;;;;5.64;100.00;100817.25;5094042;28;20035;-66
2023/11/20 01:37:01;;;;;;;9.32;4.10;;;;;;;5.66;100.00;100805.06;5090645;28;20482;-66
2023/11/20 01:39:26;;;;;;;10.55;4.10;;;;;;;5.66;100.00;100801.66;5092800;28;20371;-66
2023/11/20 01:41:52;;;;;;;7.88;4.32;;;;;;;5.64;100.00;100806.09;5094027;28;20032;-66
2023/11/20 01:44:17;;;;;;;9.80;4.10;;;;;;;5.62;100.00;100802.78;5093133;28;20115;-66
2023/11/20 01:46:43;;;;;;;7.60;4.07;;;;;;;5.61;100.00;100799.38;5093506;28;20031;-65
2023/11/20 01:49:10;;;;;;;9.65;4.90;;;;;;;5.60;100.00;100797.72;5093005;28;20446;-65
2023/11/20 01:51:36;;;;;;;7.35;3.75;;;;;;;5.60;100.00;100802.06;5089619;28;20028;-65
2023/11/20 01:54:03;;;;;;;13.25;4.88;;;;;;;5.60;100.00;100800.31;5092772;28;20035;-66
2023/11/20 01:56:30;;;;;;;9.85;4.75;;;;;;;5.61;100.00;100794.22;5094309;28;20558;-65
2023/11/20 01:59:01;;;;;;;9.88;4.32;;;;;;;5.63;100.00;100794.94;5091944;28;20055;-67
2023/11/20 02:01:27;;;;;;;8.43;4.40;;;;;;;5.65;100.00;100787.06;5094882;28;20515;-65
2023/11/20 02:04:00;;;;;;;7.72;3.22;;;;;;;5.61;100.00;100781.28;5089764;28;20024;-65
2023/11/20 02:06:26;;;;;;;11.60;4.63;;;;;;;5.59;100.00;100783.16;5093014;28;20032;-65
2023/11/20 02:08:52;;;;;;;7.95;3.63;;;;;;;5.55;100.00;100775.69;5093232;28;20070;-66
2023/11/20 02:11:17;;;;;;;7.50;4.22;;;;;;;5.53;100.00;100780.97;5094299;28;20026;-66
2023/11/20 02:13:44;;;;;;;8.18;4.10;;;;;;;5.55;100.00;100780.88;5090544;28;20027;-66
2023/11/20 02:16:09;;;;;;;10.27;4.13;;;;;;;5.53;100.00;100783.56;5092127;28;20032;-66
2023/11/20 02:18:35;;;;;;;6.00;3.42;;;;;;;5.50;100.00;100799.28;5093880;28;20047;-66
2023/11/20 02:21:02;;;;;;;13.30;3.97;;;;;;;5.49;100.00;100789.03;5089428;28;20046;-66
2023/11/20 02:23:28;;;;;;;9.30;4.05;;;;;;;5.47;100.00;100773.63;5093046;28;20048;-66
2023/11/20 02:25:59;;;;;;;8.60;3.70;;;;;;;5.45;100.00;100783.25;5090910;28;20563;-66
2023/11/20 02:28:37;;;;;;;8.45;3.78;;;;;;;5.44;100.00;100776.44;5094239;28;20413;-65
2023/11/20 02:31:02;;;;;;;9.05;3.22;;;;;;;5.41;100.00;100776.63;5091249;28;20060;-66
2023/11/20 02:33:28;;;;;;;9.07;3.97;;;;;;;5.39;100.00;100772.50;5092246;28;20155;-65
2023/11/20 02:35:53;;;;;;;8.75;4.28;;;;;;;5.39;100.00;100767.31;5092840;28;20081;-65
2023/11/20 02:38:19;;;;;;;7.55;3.53;;;;;;;5.42;100.00;100774.88;5089735;28;20032;-66
2023/11/20 02:40:44;;;;;;;8.02;3.30;;;;;;;5.40;100.00;100777.56;5089643;28;20028;-66
2023/11/20 02:43:10;;;;;;;9.23;3.70;;;;;;;5.39;100.00;100750.06;5091603;28;20229;-65
2023/11/20 02:45:35;;;;;;;7.82;3.58;;;;;;;5.44;100.00;100763.50;5091374;28;20035;-66
2023/11/20 02:48:01;;;;;;;10.18;3.83;;;;;;;5.55;100.00;100761.03;5092075;28;20024;-66
2023/11/20 02:50:28;;;;;;;9.50;3.95;;;;;;;5.55;100.00;100740.34;5096874;28;20043;-65
2023/11/20 02:52:54;;;;;;;4.72;3.00;;;;;;;5.52;100.00;100750.88;5090970;28;20078;-66
2023/11/20 02:55:20;;;;;;;8.10;4.07;;;;;;;5.52;100.00;100734.56;5093540;28;20036;-65
2023/11/20 02:57:45;;;;;;;7.43;3.45;;;;;;;5.47;100.00;100749.56;5091028;28;20077;-65
2023/11/20 03:00:12;;;;;;;6.40;3.00;;;;;;;5.47;100.00;100740.03;5092708;28;20063;-66
2023/11/20 03:02:37;;;;;;;10.43;3.83;;;;;;;5.44;100.00;100742.84;5090065;28;20028;-66
2023/11/20 03:05:07;;;;;;;8.15;4.03;;;;;;;5.47;100.00;100745.22;5090440;28;20094;-65
2023/11/20 03:07:33;;;;;;;9.43;3.80;;;;;;;5.52;100.00;100735.38;5086706;28;20098;-65
2023/11/20 03:09:58;;;;;;;7.18;3.47;;;;;;;5.52;100.00;100735.38;5090787;28;20024;-66
2023/11/20 03:12:23;;;;;;;6.32;3.20;;;;;;;5.51;100.00;100749.25;5091841;28;20416;-66
2023/11/20 03:14:49;;;;;;;7.50;3.60;;;;;;;5.53;100.00;100736.22;5092274;28;20093;-65
2023/11/20 03:17:14;;;;;;;8.90;3.88;;;;;;;5.52;100.00;100737.97;5090482;28;20043;-65
2023/11/20 03:19:40;;;;;;;6.90;3.03;;;;;;;5.48;100.00;100740.88;5090361;28;20450;-66
2023/11/20 03:22:05;;;;;;;8.55;3.45;;;;;;;5.47;100.00;100726.28;5091310;28;20040;-65
2023/11/20 03:24:31;;;;;;;8.65;3.55;;;;;;;5.44;100.00;100734.25;5087727;28;20134;-65
2023/11/20 03:26:57;;;;;;;9.20;3.83;;;;;;;5.43;100.00;100733.44;5091960;28;20028;-65
2023/11/20 03:29:22;;;;;;;5.57;2.90;;;;;;;5.45;100.00;100726.41;5089862;28;20102;-66
2023/11/20 03:31:47;;;;;;;5.55;2.83;;;;;;;5.49;100.00;100729.59;5090305;28;20577;-66
2023/11/20 03:34:13;;;;;;;5.60;2.53;;;;;;;5.50;100.00;100728.66;5092694;28;20499;-66
2023/11/20 03:36:40;;;;;;;6.57;3.60;;;;;;;5.48;100.00;100726.19;5087549;28;20031;-66
2023/11/20 03:39:05;;;;;;;7.60;3.28;;;;;;;5.45;100.00;100731.56;5089548;28;20020;-65
2023/11/20 03:41:33;;;;;;;6.57;2.97;;;;;;;5.45;100.00;100723.81;5090642;28;20096;-66
2023/11/20 03:43:58;;;;;;;9.70;3.88;;;;;;;5.44;100.00;100719.56;5094083;28;20487;-66
2023/11/20 03:46:24;;;;;;;8.13;4.07;;;;;;;5.44;100.00;100722.16;5098455;28;20035;-66
2023/11/20 03:48:49;;;;;;;8.00;3.25;;;;;;;5.48;100.00;100717.59;5097792;28;20035;-66
2023/11/20 03:51:16;;;;;;;7.57;3.95;;;;;;;5.46;100.00;100704.78;5094932;28;20067;-65
2023/11/20 03:53:41;;;;;;;6.32;3.60;;;;;;;5.43;100.00;100715.34;5097087;28;20077;-65
2023/11/20 03:56:08;;;;;;;5.20;3.00;;;;;;;5.45;100.00;100712.66;5098203;28;20036;-65
2023/11/20 03:58:33;;;;;;;8.00;2.92;;;;;;;5.47;100.00;100721.13;5098468;27;20365;-65
2023/11/20 04:00:59;;;;;;;9.07;3.45;;;;;;;5.47;100.00;100714.19;5091651;28;20093;-65
2023/11/20 04:03:24;;;;;;;5.82;3.05;;;;;;;5.50;100.00;100708.00;5098424;28;20039;-66
2023/11/20 04:05:51;;;;;;;8.85;3.72;;;;;;;5.50;100.00;100706.22;5094323;28;20031;-65
2023/11/20 04:08:17;;;;;;;8.75;3.47;;;;;;;5.51;100.00;100719.97;5098852;28;20035;-65
2023/11/20 04:10:42;;;;;;;6.35;2.95;;;;;;;5.48;100.00;100702.94;5098192;28;20040;-66
2023/11/20 04:13:09;;;;;;;8.80;3.13;;;;;;;5.46;100.00;100697.03;5096495;28;20049;-65
2023/11/20 04:15:34;;;;;;;6.07;2.95;;;;;;;5.47;100.00;100709.03;5097115;28;20052;-66
2023/11/20 04:18:01;;;;;;;6.43;2.97;;;;;;;5.47;100.00;100690.94;5096317;28;20047;-65
2023/11/20 04:20:27;;;;;;;6.75;3.35;;;;;;;5.52;100.00;100698.38;5099555;28;20468;-65
2023/11/20 04:22:54;;;;;;;6.53;3.00;;;;;;;5.51;100.00;100697.56;5096936;28;20059;-66
2023/11/20 04:25:20;;;;;;;7.85;3.33;;;;;;;5.51;100.00;100694.97;5100364;28;20445;-65
2023/11/20 04:27:51;;;;;;;6.25;2.78;;;;;;;5.48;100.00;100699.50;5094789;28;20039;-66
2023/11/20 04:30:18;;;;;;;6.53;3.00;;;;;;;5.45;100.00;100687.63;5100110;28;20103;-65
2023/11/20 04:32:43;;;;;;;5.97;2.70;;;;;;;5.47;100.00;100693.53;5098404;28;20056;-65
2023/11/20 04:35:10;;;;;;;11.30;3.13;;;;;;;5.52;100.00;100693.22;5097981;28;20044;-66
2023/11/20 04:37:35;;;;;;;6.20;3.50;;;;;;;5.54;100.00;100697.34;5099330;28;20043;-65
2023/11/20 04:40:01;;;;;;;6.25;2.55;;;;;;;5.55;100.00;100687.81;5098117;28;20115;-65
2023/11/20 04:42:26;;;;;;;7.88;3.25;;;;;;;5.55;100.00;100693.00;5097619;28;20028;-65
2023/11/20 04:44:52;;;;;;;7.10;3.00;;;;;;;5.56;100.00;100698.06;5097361;28;20028;-66
2023/11/20 04:47:17;;;;;;;7.65;3.58;;;;;;;5.59;100.00;100709.94;5095452;28;20384;-67
2023/11/20 04:49:43;;;;;;;5.28;2.58;;;;;;;5.55;100.00;100693.81;5099076;28;20024;-65
2023/11/20 04:52:08;;;;;;;6.38;3.28;;;;;;;5.52;100.00;100694.03;5099262;28;20040;-65
2023/11/20 04:54:35;;;;;;;9.27;2.95;;;;;;;5.53;100.00;100700.03;5096222;27;20035;-65
2023/11/20 04:57:00;;;;;;;6.90;2.10;;;;;;;5.55;100.00;100693.00;5092461;28;20059;-66
2023/11/20 04:59:26;;;;;;;7.00;2.88;;;;;;;5.54;100.00;100689.59;5091951;28;20113;-66
2023/11/20 05:01:52;;;;;;;8.25;3.85;;;;;;;5.59;100.00;100689.25;5093330;28;20035;-66
2023/11/20 05:04:17;;;;;;;8.35;3.35;;;;;;;5.56;100.00;100692.88;5093609;28;20036;-65
2023/11/20 05:06:43;;;;;;;5.97;3.20;;;;;;;5.56;100.00;100697.22;5094828;28;20036;-65
2023/11/20 05:09:09;;;;;;;7.53;2.63;;;;;;;5.59;100.00;100691.84;5092393;28;20031;-66
2023/11/20 05:11:37;;;;;;;7.35;3.22;;;;;;;5.61;100.00;100690.81;5094253;28;20028;-65
2023/11/20 05:14:03;;;;;;;8.00;3.17;;;;;;;5.60;100.00;100691.75;5092313;28;20046;-65
2023/11/20 05:16:28;;;;;;;5.70;2.70;;;;;;;5.61;100.00;100683.06;5100326;28;20023;-66
2023/11/20 05:18:55;;;;;;;5.22;3.30;;;;;;;5.61;100.00;100695.97;5095435;28;20364;-66
2023/11/20 05:21:20;;;;;;;6.82;3.30;;;;;;;5.59;100.00;100687.50;5096693;28;20032;-67
2023/11/20 05:23:46;;;;;;;7.22;3.08;;;;;;;5.60;100.00;100688.34;5088923;28;20044;-66
2023/11/20 05:26:11;;;;;;;6.93;3.17;;;;;;;5.59;100.00;100687.50;5085522;28;20024;-65
2023/11/20 05:28:37;;;;;;;5.78;2.88;;;;;;;5.60;100.00;100686.56;5093178;28;20036;-66
2023/11/20 05:31:04;;;;;;;5.45;2.80;;;;;;;5.60;100.00;100681.41;5094222;28;20031;-66
2023/11/20 05:33:30;;;;;;;5.18;2.03;;;;;;;5.60;100.00;100685.75;5090531;28;20055;-66
2023/11/20 05:35:55;;;;;;;6.40;2.80;;;;;;;5.62;100.00;100682.13;5094034;28;20395;-65
2023/11/20 05:38:21;;;;;;;7.60;2.55;;;;;;;5.61;100.00;100680.47;5092501;28;20024;-65
2023/11/20 05:40:46;;;;;;;5.88;2.83;;;;;;;5.62;100.00;100678.72;5090842;28;20036;-66
2023/11/20 05:43:12;;;;;;;5.72;2.85;;;;;;;5.60;100.00;100686.56;5093124;28;20032;-65
2023/11/20 05:45:37;;;;;;;6.20;3.00;;;;;;;5.57;100.00;100683.38;5091962;28;20037;-65
2023/11/20 05:48:03;;;;;;;7.22;2.78;;;;;;;5.57;100.00;100688.53;5092121;28;20024;-66
2023/11/20 05:50:28;;;;;;;11.77;2.95;;;;;;;5.59;100.00;100690.09;5086785;28;20039;-65
2023/11/20 05:52:53;;;;;;;5.43;2.67;;;;;;;5.59;100.00;100684.91;5094712;28;20042;-66
2023/11/20 05:55:19;;;;;;;5.22;2.58;;;;;;;5.60;100.00;100689.16;5094869;28;20440;-66
2023/11/20 05:57:44;;;;;;;6.03;2.08;;;;;;;5.58;100.00;100692.78;5093656;28;20028;-68
2023/11/20 06:00:10;;;;;;;7.45;2.45;;;;;;;5.58;100.00;100690.19;5094221;28;20032;-66
2023/11/20 06:02:36;;;;;;;10.32;2.45;;;;;;;5.55;100.00;100693.81;5094104;28;20128;-66
2023/11/20 06:05:03;;;;;;;4.25;1.85;;;;;;;5.57;100.00;100689.38;5092957;28;20039;-66
2023/11/20 06:07:28;;;;;;;5.78;2.58;;;;;;;5.57;100.00;100697.13;5094448;28;20225;-66
2023/11/20 06:09:54;;;;;;;8.45;2.83;;;;;;;5.53;100.00;100694.84;5094100;28;20036;-66
2023/11/20 06:12:19;;;;;;;4.28;2.22;;;;;;;5.47;100.00;100690.94;5095632;28;20036;-68
2023/11/20 06:14:44;;;;;;;4.60;1.98;;;;;;;5.47;100.00;100690.94;5093166;28;20028;-65
2023/11/20 06:17:10;;;;;;;5.72;2.20;;;;;;;5.48;100.00;100686.59;5093835;28;20113;-66
2023/11/20 06:19:35;;;;;;;6.85;2.47;;;;;;;5.49;100.00;100689.06;5094387;28;20093;-65
2023/11/20 06:22:01;;;;;;;5.13;1.92;;;;;;;5.50;100.00;100688.16;5093634;28;20042;-66
2023/11/20 06:24:26;;;;;;;3.80;2.47;;;;;;;5.56;100.00;100692.06;5094925;28;20052;-65
2023/11/20 06:26:52;;;;;;;5.28;2.65;;;;;;;5.57;100.00;100686.78;5091134;28;20031;-66
2023/11/20 06:29:17;;;;;;;6.25;2.25;;;;;;;5.60;99.87;100686.56;5092794;28;20035;-65
2023/11/20 06:31:42;;;;;;;4.93;2.00;;;;;;;5.60;100.00;100689.16;5093945;28;20032;-65
2023/11/20 06:34:09;;;;;;;3.35;1.83;;;;;;;5.63;99.68;100686.38;5092025;28;20047;-66
2023/11/20 06:36:34;;;;;;;3.63;2.05;;;;;;;5.66;99.60;100686.16;5091458;28;20116;-66
2023/11/20 06:39:00;;;;;;;6.30;2.42;;;;;;;5.68;99.50;100693.75;5089652;28;20028;-65
2023/11/20 06:41:28;;;;;;;4.93;2.30;;;;;;;5.73;99.72;100706.38;5093660;28;20127;-65
2023/11/20 06:43:54;;;;;;;10.98;2.97;;;;;;;5.77;99.37;100712.97;5093216;28;20032;-66
2023/11/20 06:46:21;;;;;;;21.38;5.97;;;;;;;5.80;99.09;100703.25;5092990;28;20078;-65
2023/11/20 06:48:47;;;;;;;18.98;5.55;;;;;;;5.85;98.35;100710.69;5091846;28;20057;-66
2023/11/20 06:51:13;;;;;;;5.70;3.28;;;;;;;5.91;97.94;100718.03;5092713;28;20452;-66
2023/11/20 06:53:38;;;;;;;9.00;2.95;;;;;;;5.95;98.75;100720.31;5090978;28;20039;-66
2023/11/20 06:56:05;;;;;;;6.20;2.25;;;;;;;5.94;98.21;100716.06;5095794;28;20035;-66
2023/11/20 06:58:36;;;;;;;5.70;2.67;;;;;;;5.91;97.82;100720.63;5102547;28;20760;-66
2023/11/20 07:01:03;;;;;;;5.60;2.00;;;;;;;5.89;97.90;100722.50;5101349;28;20513;-67
2023/11/20 07:03:29;;;;;;;5.32;2.35;;;;;;;5.91;97.94;100718.03;5096635;28;20031;-66
2023/11/20 07:05:54;;;;;;;5.57;2.58;;;;;;;5.91;97.92;100716.28;5096821;28;20032;-66
2023/11/20 07:08:21;;;;;;;4.88;2.28;;;;;;;5.94;97.45;100721.25;5097489;28;20024;-66
2023/11/20 07:10:47;;;;;;;5.18;2.35;;;;;;;5.97;97.29;100715.03;5096142;28;20071;-66
2023/11/20 07:13:14;;;;;;;5.47;1.48;;;;;;;6.04;96.90;100712.84;5096502;28;20027;-66
2023/11/20 07:15:39;;;;;;;4.05;1.83;;;;;;;6.08;96.33;100709.94;5093309;28;20031;-67
2023/11/20 07:18:08;;;;;;;4.13;1.83;;;;;;;6.11;96.62;100709.72;5089514;28;20153;-66
2023/11/20 07:20:36;;;;;;;5.57;1.92;;;;;;;6.12;96.29;100713.94;5089977;28;20047;-66
2023/11/20 07:23:04;;;;;;;8.05;2.33;;;;;;;6.14;96.44;100716.44;5091036;28;20085;-66
2023/11/20 07:25:34;;;;;;;4.07;1.50;;;;;;;6.17;96.12;100714.41;5090979;28;20036;-66
2023/11/20 07:28:01;;;;;;;2.90;1.45;;;;;;;6.22;95.93;100714.91;5093790;28;20061;-66
2023/11/20 07:30:27;;;;;;;5.20;1.60;;;;;;;6.26;95.39;100715.50;5093037;28;20035;-66
2023/11/20 07:32:52;;;;;;;2.95;1.38;;;;;;;6.28;95.55;100719.66;5093413;28;20036;-66
2023/11/20 07:35:18;;;;;;;5.18;1.95;;;;;;;6.29;95.06;100721.28;5091474;28;20715;-66
2023/11/20 07:37:43;;;;;;;4.22;1.35;;;;;;;6.32;95.23;100722.84;5091558;28;20475;-66
2023/11/20 07:40:11;;;;;;;12.25;2.25;;;;;;;6.32;94.95;100718.50;5091431;28;20076;-66
2023/11/20 07:42:40;;;;;;;5.03;2.13;;;;;;;6.37;94.60;100727.69;5096476;28;20032;-66
2023/11/20 07:45:06;;;;;;;3.13;1.63;;;;;;;6.38;94.84;100724.16;5096925;28;20027;-66
2023/11/20 07:47:32;;;;;;;2.90;1.73;;;;;;;6.42;94.92;100725.59;5096768;28;20046;-66
2023/11/20 07:49:57;;;;;;;7.72;2.55;;;;;;;6.42;94.94;100718.66;5095254;28;20031;-66
2023/11/20 07:52:23;;;;;;;2.78;1.02;;;;;;;6.41;94.48;100722.19;5101471;28;20039;-67
2023/11/20 07:54:48;;;;;;;4.22;2.28;;;;;;;6.39;94.75;100718.88;5100442;28;20039;-66
2023/11/20 07:57:15;;;;;;;10.50;3.42;;;;;;;6.42;94.78;100717.81;5100206;28;20482;-66
2023/11/20 07:59:41;;;;;;;5.88;2.28;;;;;;;6.43;94.56;100712.53;5098019;28;20035;-66
2023/11/20 08:02:08;;;;;;;5.20;2.30;;;;;;;6.45;94.77;100713.25;5104208;28;20475;-66
2023/11/20 08:04:34;;;;;;;5.30;2.55;;;;;;;6.47;94.35;100708.78;5104230;28;20072;-67
2023/11/20 08:07:00;;;;;;;3.75;2.08;;;;;;;6.50;93.74;100707.75;5092835;28;20028;-66
2023/11/20 08:09:25;;;;;;;3.60;1.92;;;;;;;6.51;94.19;100707.63;5099091;28;20426;-66
2023/11/20 08:11:51;;;;;;;4.88;2.15;;;;;;;6.51;94.40;100699.88;5102978;28;20052;-66
2023/11/20 08:14:18;;;;;;;7.15;2.22;;;;;;;6.51;94.27;100693.88;5099922;28;20085;-67
2023/11/20 08:16:44;;;;;;;5.55;1.40;;;;;;;6.52;93.99;100690.34;5099318;28;20036;-66
2023/11/20 08:19:09;;;;;;;3.63;1.60;;;;;;;6.57;94.08;100686.47;5098580;28;20020;-66
2023/11/20 08:21:35;;;;;;;4.72;2.10;;;;;;;6.61;93.81;100689.66;5089108;28;20031;-66
2023/11/20 08:24:01;;;;;;;4.90;2.20;;;;;;;6.63;93.79;100685.16;5090689;28;20044;-66
2023/11/20 08:26:26;;;;;;;5.63;1.58;;;;;;;6.68;94.12;100683.06;5092276;28;20391;-66
2023/11/20 08:28:52;;;;;;;5.35;2.25;;;;;;;6.71;93.73;100690.59;5091667;28;20063;-66
2023/11/20 08:31:18;;;;;;;3.97;1.60;;;;;;;6.75;94.06;100702.38;5103846;28;20042;-67
2023/11/20 08:33:44;;;;;;;3.50;1.48;;;;;;;6.78;93.87;100707.34;5093586;27;20046;-65
2023/11/20 08:36:10;;;;;;;6.82;2.47;;;;;;;6.83;93.44;100699.22;5095553;28;20020;-66
2023/11/20 08:38:36;;;;;;;3.45;1.73;;;;;;;6.87;93.35;100708.44;5093066;28;20124;-65
2023/11/20 08:41:01;;;;;;;4.20;1.83;;;;;;;6.88;93.92;100705.72;5095194;28;20494;-66
2023/11/20 08:43:27;;;;;;;4.03;2.10;;;;;;;6.90;93.45;100711.59;5095469;28;20028;-66
2023/11/20 08:45:53;;;;;;;3.97;1.92;;;;;;;6.93;93.47;100706.19;5092421;28;20539;-66
2023/11/20 08:48:19;;;;;;;7.18;1.70;;;;;;;7.02;92.41;100709.03;5096004;28;20452;-66
2023/11/20 08:50:44;;;;;;;4.20;2.20;;;;;;;7.05;92.19;100701.88;5096525;28;20055;-66
2023/11/20 08:53:10;;;;;;;5.13;2.47;;;;;;;7.14;92.32;100705.50;5100122;28;20522;-66
2023/11/20 08:55:36;;;;;;;6.53;2.30;;;;;;;7.24;91.90;100696.91;5095850;28;20028;-66
2023/11/20 08:58:04;;;;;;;5.00;1.73;;;;;;;7.38;91.06;100685.50;5098333;28;20020;-66
2023/11/20 09:00:30;;;;;;;4.00;1.98;;;;;;;7.51;91.37;100690.56;5098777;28;20059;-65
2023/11/20 09:02:55;;;;;;;4.05;1.60;;;;;;;7.59;90.42;100685.56;5092796;28;20105;-66
2023/11/20 09:05:21;;;;;;;5.03;2.38;;;;;;;7.63;90.29;100685.22;5094422;28;20399;-66
2023/11/20 09:07:46;;;;;;;6.40;2.58;;;;;;;7.69;90.85;100678.72;5093561;28;20043;-66
2023/11/20 09:10:12;;;;;;;4.50;2.25;;;;;;;7.73;89.84;100680.13;5096801;28;20020;-65
2023/11/20 09:12:42;;;;;;;9.52;2.80;;;;;;;7.85;90.20;100686.13;5093126;28;20027;-65
2023/11/20 09:15:08;;;;;;;4.95;2.22;;;;;;;7.87;89.65;100677.28;5102795;28;20032;-65
2023/11/20 09:17:36;;;;;;;4.63;2.70;;;;;;;7.87;89.56;100671.28;5104012;28;20028;-66
2023/11/20 09:20:02;;;;;;;5.15;2.20;;;;;;;7.90;89.77;100676.22;5097434;28;20032;-66
2023/11/20 09:22:28;;;;;;;6.75;2.83;;;;;;;7.95;89.57;100674.09;5099271;28;20074;-66
2023/11/20 09:24:53;;;;;;;5.63;2.72;;;;;;;8.01;88.88;100677.97;5097797;28;20130;-66
2023/11/20 09:27:19;;;;;;;10.23;3.80;;;;;;;8.07;88.25;100682.63;5101188;28;20036;-66
2023/11/20 09:29:48;;;;;;;6.55;2.50;;;;;;;8.10;87.16;100683.22;5092804;28;20408;-66
2023/11/20 09:32:13;;;;;;;6.35;2.83;;;;;;;8.16;88.19;100680.13;5101211;28;20217;-66
2023/11/20 09:34:39;;;;;;;5.07;1.90;;;;;;;8.21;88.16;100679.75;5091772;28;20559;-66
2023/11/20 09:37:05;;;;;;;3.30;1.75;;;;;;;8.26;87.07;100682.81;5093001;28;20036;-66
2023/11/20 09:39:30;;;;;;;4.32;1.90;;;;;;;8.35;88.56;100692.47;5091957;28;20129;-66
2023/11/20 09:41:56;;;;;;;4.85;2.20;;;;;;;8.45;87.86;100682.19;5091694;28;20498;-66
2023/11/20 09:44:27;;;;;;;3.42;1.77;;;;;;;8.49;86.88;100674.00;5092311;27;20055;-66
2023/11/20 09:46:54;;;;;;;4.32;1.63;;;;;;;8.46;86.78;100676.03;5093168;28;20024;-66
2023/11/20 09:49:26;;;;;;;3.42;1.40;;;;;;;8.40;86.71;100669.56;5092816;28;20063;-66
2023/11/20 09:51:52;;;;;;;4.80;2.33;;;;;;;8.36;86.54;100669.94;5092079;28;20114;-66
2023/11/20 09:54:18;;;;;;;2.97;1.45;;;;;;;8.35;86.13;100668.28;5093007;28;20112;-65
2023/11/20 09:56:44;;;;;;;4.95;1.70;;;;;;;8.36;86.64;100673.34;5091735;28;20032;-66
2023/11/20 09:59:11;;;;;;;3.40;1.60;;;;;;;8.35;86.25;100665.69;5095220;28;20028;-66
2023/11/20 10:01:38;;;;;;;4.68;1.58;;;;;;;8.36;86.30;100668.16;5093569;28;20420;-66
2023/11/20 10:04:04;;;;;;;6.78;1.63;;;;;;;8.42;85.94;100659.88;5095140;28;20078;-66
2023/11/20 10:06:33;;;;;;;4.28;2.25;;;;;;;8.52;87.01;100657.31;5093998;28;20039;-65
2023/11/20 10:08:59;;;;;;;9.07;2.65;;;;;;;8.59;86.45;100648.91;5094675;28;20031;-66
2023/11/20 10:11:29;;;;;;;3.70;1.85;;;;;;;8.62;86.63;100647.81;5093243;28;20441;-65
2023/11/20 10:13:55;;;;;;;6.75;1.58;;;;;;;8.62;85.28;100648.66;5091663;28;20127;-65
2023/11/20 10:16:22;;;;;;;5.30;1.65;;;;;;;8.70;84.98;100644.59;5095269;28;20043;-66
2023/11/20 10:18:49;;;;;;;3.40;1.98;;;;;;;8.79;85.10;100638.63;5093348;28;20403;-66
2023/11/20 10:21:15;;;;;;;3.38;1.40;;;;;;;8.77;85.09;100640.53;5096703;28;20043;-66
2023/11/20 10:23:41;;;;;;;3.97;1.60;;;;;;;8.73;84.83;100639.16;5094199;28;20051;-66
2023/11/20 10:26:07;;;;;;;3.35;1.88;;;;;;;8.71;84.61;100636.69;5092826;28;20024;-66
2023/11/20 10:28:33;;;;;;;7.18;2.05;;;;;;;8.71;85.12;100626.28;5096959;28;20035;-66
2023/11/20 10:30:59;;;;;;;3.78;1.48;;;;;;;8.73;84.84;100632.19;5093504;28;20043;-67
2023/11/20 10:33:25;;;;;;;6.13;2.30;;;;;;;8.79;84.94;100630.84;5098977;28;20080;-66
2023/11/20 10:35:51;;;;;;;3.35;1.98;;;;;;;8.82;85.12;100622.78;5092386;28;20075;-66
2023/11/20 10:38:18;;;;;;;3.45;1.60;;;;;;;8.83;84.99;100620.06;5100532;28;20476;-66
2023/11/20 10:40:44;;;;;;;3.35;1.33;;;;;;;8.85;85.52;100625.13;5097649;28;20032;-66
2023/11/20 10:43:10;;;;;;;4.78;1.83;;;;;;;8.86;85.21;100625.00;5095474;28;20432;-66
2023/11/20 10:45:39;;;;;;;3.38;1.80;;;;;;;8.90;84.21;100621.19;5092079;28;20035;-65
2023/11/20 10:48:07;;;;;;;2.42;1.67;;;;;;;8.94;83.88;100611.38;5089126;28;20031;-66
2023/11/20 10:50:38;;;;;;;3.47;1.50;;;;;;;9.04;84.16;100611.38;5087065;28;20118;-65
2023/11/20 10:53:07;;;;;;;6.05;2.90;;;;;;;9.11;84.83;100602.94;5085189;28;20044;-66
2023/11/20 10:55:39;;;;;;;5.30;1.83;;;;;;;9.17;83.69;100601.59;5087214;28;20032;-65
2023/11/20 10:58:07;;;;;;;6.10;2.25;;;;;;;9.21;83.70;100595.16;5090222;28;20028;-65
2023/11/20 11:00:34;;;;;;;4.82;2.38;;;;;;;9.21;83.90;100593.41;5089725;28;20032;-65
2023/11/20 11:03:00;;;;;;;5.55;1.88;;;;;;;9.21;83.77;100584.78;5089774;28;20051;-65
2023/11/20 11:05:29;;;;;;;3.70;1.40;;;;;;;9.22;84.43;100578.63;5089989;28;20032;-65
2023/11/20 11:07:57;;;;;;;7.15;1.92;;;;;;;9.25;84.58;100573.16;5093882;28;20028;-65
2023/11/20 11:10:24;;;;;;;2.80;1.48;;;;;;;9.34;84.25;100568.94;5091184;28;20110;-65
2023/11/20 11:12:49;;;;;;;6.50;1.67;;;;;;;9.42;84.45;100558.69;5090159;28;20024;-66
2023/11/20 11:15:15;;;;;;;7.20;1.88;;;;;;;9.47;83.26;100567.69;5094397;28;20050;-65
2023/11/20 11:17:48;;;;;;;5.50;1.58;;;;;;;9.53;83.31;100561.13;5093044;28;20142;-64
2023/11/20 11:20:20;;;;;;;3.17;1.42;;;;;;;9.50;84.30;100549.22;5097456;28;20028;-65
2023/11/20 11:22:56;;;;;;;3.75;1.63;;;;;;;9.54;83.58;100547.19;5092251;28;20112;-65